createdAt,value
2019-05-26T00:02:30.185Z,99888.33
2019-05-26T00:05:02.760Z,99892.18
2019-05-26T00:07:35.415Z,99887.89
2019-05-26T00:10:10.197Z,99888.14
2019-05-26T00:12:42.843Z,99885.91
2019-05-26T00:15:15.356Z,99890.97
2019-05-26T00:17:47.674Z,99886.06
2019-05-26T00:20:19.899Z,99896.75
2019-05-26T00:22:53.575Z,99891.41
2019-05-26T00:25:25.767Z,99887.65
2019-05-26T00:27:57.934Z,99889.89
2019-05-26T00:30:30.378Z,99887.16
2019-05-26T00:33:02.717Z,99885.07
2019-05-26T00:35:35.217Z,99887.25
2019-05-26T00:38:07.647Z,99888.59
2019-05-26T00:40:39.972Z,99892.94
2019-05-26T00:43:12.392Z,99893.99
2019-05-26T00:45:44.468Z,99894.73
2019-05-26T00:48:16.867Z,99897.00
2019-05-26T00:50:49.159Z,99895.30
2019-05-26T00:53:21.491Z,99891.47
2019-05-26T00:55:53.779Z,99889.80
2019-05-26T00:58:25.923Z,99894.58
2019-05-26T01:00:58.085Z,99891.56
2019-05-26T01:03:30.329Z,99890.91
2019-05-26T01:06:02.625Z,99892.41
2019-05-26T01:08:34.893Z,99894.83
2019-05-26T01:11:07.157Z,99890.98
2019-05-26T01:13:39.626Z,99887.30
2019-05-26T01:16:11.834Z,99887.41
2019-05-26T01:18:44.082Z,99892.09
2019-05-26T01:21:16.224Z,99896.60
2019-05-26T01:23:48.500Z,99893.25
2019-05-26T01:26:20.594Z,99889.73
2019-05-26T01:28:52.881Z,99892.81
2019-05-26T01:31:25.178Z,99895.52
2019-05-26T01:33:57.640Z,99892.50
2019-05-26T01:36:30.432Z,99909.28
2019-05-26T01:39:04.305Z,99907.27
2019-05-26T01:41:36.641Z,99906.55
2019-05-26T01:44:08.989Z,99909.31
2019-05-26T01:46:41.274Z,99909.13
2019-05-26T01:49:13.719Z,99910.83
2019-05-26T01:51:46.105Z,99913.66
2019-05-26T01:54:18.568Z,99910.49
2019-05-26T01:56:50.826Z,99906.36
2019-05-26T01:59:24.232Z,99910.77
2019-05-26T02:01:58.755Z,99918.14
2019-05-26T02:04:30.426Z,99921.31
2019-05-26T02:07:02.654Z,99921.31
2019-05-26T02:09:34.969Z,99922.80
2019-05-26T02:12:07.378Z,99931.36
2019-05-26T02:14:39.650Z,99933.88
2019-05-26T02:17:11.927Z,99927.94
2019-05-26T02:19:44.696Z,99930.92
2019-05-26T02:22:17.087Z,99933.63
2019-05-26T02:24:49.416Z,99935.87
2019-05-26T02:27:21.723Z,99941.46
2019-05-26T02:29:54.069Z,99948.64
2019-05-26T02:32:26.390Z,99949.48
2019-05-26T02:34:58.867Z,99946.74
2019-05-26T02:37:31.276Z,99953.39
2019-05-26T02:40:04.981Z,99953.08
2019-05-26T02:42:37.420Z,99950.03
2019-05-26T02:45:11.134Z,99958.73
2019-05-26T02:47:43.802Z,99958.39
2019-05-26T02:50:17.971Z,99958.23
2019-05-26T02:52:50.485Z,99962.41
2019-05-26T02:55:23.995Z,99961.75
2019-05-26T02:57:56.254Z,99956.41
2019-05-26T03:00:45.847Z,99957.55
2019-05-26T03:03:17.451Z,99956.72
2019-05-26T03:05:49.415Z,99961.91
2019-05-26T03:08:23.252Z,99966.45
2019-05-26T03:10:57.103Z,99959.19
2019-05-26T03:13:31.599Z,99962.61
2019-05-26T03:16:05.896Z,99959.00
2019-05-26T03:18:41.436Z,99966.22
2019-05-26T03:21:14.279Z,99960.19
2019-05-26T03:23:49.742Z,99968.30
2019-05-26T03:26:23.564Z,99973.22
2019-05-26T03:28:55.915Z,99976.83
2019-05-26T03:31:28.179Z,99978.91
2019-05-26T03:34:00.523Z,99981.77
2019-05-26T03:36:32.893Z,99975.92
2019-05-26T03:39:08.556Z,99981.64
2019-05-26T03:41:41.227Z,99982.52
2019-05-26T03:44:13.286Z,99982.86
2019-05-26T03:46:45.417Z,99989.45
2019-05-26T03:49:17.616Z,99998.31
2019-05-26T03:51:49.938Z,100003.05
2019-05-26T03:54:22.371Z,100006.06
2019-05-26T03:56:54.617Z,100015.43
2019-05-26T03:59:26.845Z,100007.74
2019-05-26T04:01:59.293Z,100015.83
2019-05-26T04:04:32.567Z,100012.16
2019-05-26T04:07:04.991Z,100015.83
2019-05-26T04:09:37.187Z,100017.55
2019-05-26T04:12:09.482Z,100020.62
2019-05-26T04:14:41.677Z,100027.13
2019-05-26T04:17:14.287Z,100030.76
2019-05-26T04:19:46.608Z,100029.20
2019-05-26T04:22:18.866Z,100035.66
2019-05-26T04:24:51.227Z,100035.51
2019-05-26T04:27:23.504Z,100040.22
2019-05-26T04:29:55.509Z,100045.52
2019-05-26T04:32:27.850Z,100041.01
2019-05-26T04:35:00.021Z,100039.74
2019-05-26T04:37:32.408Z,100034.56
2019-05-26T04:40:25.133Z,100042.69
2019-05-26T04:42:41.810Z,100038.42
2019-05-26T04:45:15.254Z,100031.73
2019-05-26T04:47:47.804Z,100042.66
2019-05-26T04:50:20.007Z,100041.85
2019-05-26T04:53:05.599Z,100042.76
2019-05-26T04:55:26.511Z,100047.03
2019-05-26T04:57:59.022Z,100047.13
2019-05-26T05:00:31.394Z,100051.23
2019-05-26T05:03:03.779Z,100048.66
2019-05-26T05:05:38.449Z,100056.93
2019-05-26T05:08:11.916Z,100051.14
2019-05-26T05:10:44.348Z,100053.55
2019-05-26T05:13:16.625Z,100054.47
2019-05-26T05:15:49.019Z,100053.97
2019-05-26T05:18:21.398Z,100045.71
2019-05-26T05:20:53.666Z,100056.11
2019-05-26T05:23:25.958Z,100056.50
2019-05-26T05:25:58.384Z,100060.48
2019-05-26T05:28:30.781Z,100055.91
2019-05-26T05:31:02.929Z,100062.05
2019-05-26T05:33:35.249Z,100055.36
2019-05-26T05:36:08.464Z,100062.14
2019-05-26T05:38:40.919Z,100056.31
2019-05-26T05:41:13.365Z,100058.20
2019-05-26T05:43:45.713Z,100063.50
2019-05-26T05:46:19.011Z,100059.42
2019-05-26T05:48:51.336Z,100060.36
2019-05-26T05:51:23.711Z,100062.70
2019-05-26T05:53:56.221Z,100059.55
2019-05-26T05:56:28.504Z,100059.02
2019-05-26T05:59:00.911Z,100060.52
2019-05-26T06:01:33.107Z,100065.00
2019-05-26T06:04:05.474Z,100070.41
2019-05-26T06:06:37.799Z,100068.41
2019-05-26T06:09:09.993Z,100062.23
2019-05-26T06:11:42.137Z,100072.20
2019-05-26T06:14:14.373Z,100071.33
2019-05-26T06:16:46.724Z,100067.52
2019-05-26T06:19:18.979Z,100074.73
2019-05-26T06:21:51.482Z,100073.02
2019-05-26T06:24:23.827Z,100081.86
2019-05-26T06:26:56.160Z,100093.67
2019-05-26T06:29:28.522Z,100096.05
2019-05-26T06:32:01.182Z,100090.69
2019-05-26T06:34:33.808Z,100092.13
2019-05-26T06:37:06.056Z,100078.20
2019-05-26T06:39:38.295Z,100083.11
2019-05-26T06:42:12.962Z,100084.46
2019-05-26T06:44:53.432Z,100092.59
2019-05-26T06:47:19.847Z,100086.97
2019-05-26T06:49:52.176Z,100089.66
2019-05-26T06:52:24.532Z,100093.05
2019-05-26T06:54:56.926Z,100100.36
2019-05-26T06:57:29.261Z,100096.23
2019-05-26T07:00:01.548Z,100093.81
2019-05-26T07:02:33.961Z,100096.97
2019-05-26T07:05:08.748Z,100103.28
2019-05-26T07:07:41.095Z,100104.48
2019-05-26T07:10:14.040Z,100099.28
2019-05-26T07:12:47.516Z,100103.00
2019-05-26T07:15:19.999Z,100101.63
2019-05-26T07:17:52.552Z,100100.31
2019-05-26T07:20:24.968Z,100110.28
2019-05-26T07:22:57.185Z,100106.95
2019-05-26T07:25:29.498Z,100112.20
2019-05-26T07:28:01.607Z,100110.88
2019-05-26T07:30:33.846Z,100117.24
2019-05-26T07:33:06.162Z,100113.22
2019-05-26T07:35:38.407Z,100110.38
2019-05-26T07:38:11.704Z,100120.17
2019-05-26T07:40:44.198Z,100124.41
2019-05-26T07:43:16.579Z,100127.08
2019-05-26T07:48:26.402Z,100131.28
2019-05-26T07:50:58.800Z,100133.14
2019-05-26T07:53:31.211Z,100132.81
2019-05-26T07:56:03.541Z,100135.81
2019-05-26T07:58:35.837Z,100135.48
2019-05-26T08:01:08.024Z,100125.73
2019-05-26T08:03:40.305Z,100123.38
2019-05-26T08:06:13.501Z,100132.80
2019-05-26T08:08:45.769Z,100132.27
2019-05-26T08:11:18.178Z,100132.42
2019-05-26T08:13:50.418Z,100127.36
2019-05-26T08:16:22.680Z,100129.02
2019-05-26T08:18:54.908Z,100137.56
2019-05-26T08:21:27.102Z,100126.90
2019-05-26T08:23:59.184Z,100133.34
2019-05-26T08:26:31.474Z,100137.12
2019-05-26T08:29:03.797Z,100135.11
2019-05-26T08:31:36.099Z,100135.45
2019-05-26T08:34:08.351Z,100132.51
2019-05-26T08:36:40.706Z,100131.92
2019-05-26T08:39:12.990Z,100135.31
2019-05-26T08:41:46.171Z,100132.88
2019-05-26T08:44:18.316Z,100141.94
2019-05-26T08:46:50.610Z,100150.34
2019-05-26T08:49:22.696Z,100143.49
2019-05-26T08:51:55.015Z,100137.32
2019-05-26T08:54:27.252Z,100151.30
2019-05-26T08:56:59.541Z,100149.63
2019-05-26T08:59:31.873Z,100159.20
2019-05-26T09:02:04.513Z,100148.08
2019-05-26T09:04:36.680Z,100156.00
2019-05-26T09:07:08.968Z,100150.53
2019-05-26T09:09:43.734Z,100142.77
2019-05-26T09:12:16.125Z,100129.03
2019-05-26T09:14:48.684Z,100140.44
2019-05-26T09:17:21.107Z,100129.92
2019-05-26T09:19:53.216Z,100136.83
2019-05-26T09:22:25.464Z,100147.41
2019-05-26T09:24:57.571Z,100151.63
2019-05-26T09:27:29.775Z,100149.27
2019-05-26T09:30:02.019Z,100150.12
2019-05-26T09:32:35.360Z,100159.03
2019-05-26T09:35:08.357Z,100147.72
2019-05-26T09:37:40.587Z,100152.05
2019-05-26T09:40:14.174Z,100153.91
2019-05-26T09:42:46.491Z,100149.42
2019-05-26T09:45:19.189Z,100154.64
2019-05-26T09:47:51.475Z,100159.36
2019-05-26T09:50:23.773Z,100153.62
2019-05-26T09:52:56.688Z,100174.88
2019-05-26T09:55:31.138Z,100153.34
2019-05-26T09:58:06.704Z,100155.81
2019-05-26T10:00:44.329Z,100159.44
2019-05-26T10:03:17.375Z,100160.41
2019-05-26T10:05:49.711Z,100164.20
2019-05-26T10:08:21.915Z,100168.48
2019-05-26T10:10:54.032Z,100164.80
2019-05-26T10:13:31.843Z,100161.84
2019-05-26T10:16:00.309Z,100154.22
2019-05-26T10:18:32.457Z,100152.81
2019-05-26T10:21:04.990Z,100150.80
2019-05-26T10:23:37.488Z,100160.37
2019-05-26T10:26:09.807Z,100150.78
2019-05-26T10:28:42.153Z,100159.83
2019-05-26T10:31:14.584Z,100154.81
2019-05-26T10:33:46.798Z,100156.25
2019-05-26T10:36:19.066Z,100156.63
2019-05-26T10:38:51.386Z,100159.88
2019-05-26T10:41:23.757Z,100162.50
2019-05-26T10:43:56.064Z,100168.94
2019-05-26T10:46:28.525Z,100169.38
2019-05-26T10:49:01.963Z,100169.61
2019-05-26T10:51:35.051Z,100171.98
2019-05-26T10:54:07.394Z,100177.25
2019-05-26T10:56:39.636Z,100168.44
2019-05-26T10:59:12.022Z,100161.72
2019-05-26T11:01:44.353Z,100155.86
2019-05-26T11:04:16.791Z,100152.35
2019-05-26T11:06:48.981Z,100162.49
2019-05-26T11:09:21.390Z,100156.13
2019-05-26T11:11:53.555Z,100156.70
2019-05-26T11:14:25.897Z,100157.83
2019-05-26T11:16:58.043Z,100154.02
2019-05-26T11:19:31.268Z,100154.91
2019-05-26T11:22:04.559Z,100165.36
2019-05-26T11:24:36.787Z,100164.17
2019-05-26T11:27:12.402Z,100178.17
2019-05-26T11:29:43.025Z,100172.05
2019-05-26T11:32:15.292Z,100194.02
2019-05-26T11:35:00.671Z,100190.03
2019-05-26T11:37:21.827Z,100189.78
2019-05-26T11:39:54.963Z,100187.98
2019-05-26T11:42:27.064Z,100177.10
2019-05-26T11:44:59.419Z,100187.19
2019-05-26T11:47:31.991Z,100191.98
2019-05-26T11:50:07.021Z,100203.08
2019-05-26T11:52:40.292Z,100197.53
2019-05-26T11:55:13.051Z,100209.81
2019-05-26T11:57:45.398Z,100210.45
2019-05-26T12:00:19.638Z,100198.36
2019-05-26T12:02:51.875Z,100198.80
2019-05-26T12:05:24.410Z,100209.78
2019-05-26T12:07:56.621Z,100216.73
2019-05-26T12:10:28.908Z,100212.53
2019-05-26T12:13:01.264Z,100197.72
2019-05-26T12:15:33.607Z,100188.80
2019-05-26T12:18:06.521Z,100199.89
2019-05-26T12:20:39.933Z,100199.94
2019-05-26T12:23:12.385Z,100198.17
2019-05-26T12:25:44.568Z,100189.72
2019-05-26T12:28:16.798Z,100195.15
2019-05-26T12:30:49.244Z,100195.11
2019-05-26T12:33:21.556Z,100195.57
2019-05-26T12:35:54.183Z,100187.98
2019-05-26T12:38:26.434Z,100181.05
2019-05-26T12:40:59.583Z,100188.11
2019-05-26T12:43:31.976Z,100195.89
2019-05-26T12:46:04.302Z,100178.34
2019-05-26T12:48:36.709Z,100180.30
2019-05-26T12:51:09.992Z,100175.28
2019-05-26T12:53:42.094Z,100177.70
2019-05-26T12:56:14.387Z,100187.61
2019-05-26T12:58:46.599Z,100187.33
2019-05-26T13:01:19.025Z,100200.33
2019-05-26T13:03:51.267Z,100217.23
2019-05-26T13:06:23.636Z,100210.84
2019-05-26T13:08:55.991Z,100212.17
2019-05-26T13:11:28.324Z,100212.50
2019-05-26T13:14:00.580Z,100221.95
2019-05-26T13:16:35.830Z,100225.03
2019-05-26T13:19:06.778Z,100225.36
2019-05-26T13:21:39.338Z,100213.58
2019-05-26T13:24:11.605Z,100206.40
2019-05-26T13:26:43.757Z,100223.45
2019-05-26T13:29:15.962Z,100210.45
2019-05-26T13:31:48.271Z,100213.19
2019-05-26T13:34:20.689Z,100214.59
2019-05-26T13:36:53.076Z,100214.53
2019-05-26T13:39:25.873Z,100223.84
2019-05-26T13:41:58.151Z,100207.77
2019-05-26T13:44:30.656Z,100212.19
2019-05-26T13:47:04.058Z,100219.10
2019-05-26T13:49:36.458Z,100234.41
2019-05-26T13:52:08.739Z,100237.70
2019-05-26T13:54:40.804Z,100250.55
2019-05-26T13:57:13.078Z,100245.26
2019-05-26T13:59:45.450Z,100266.95
2019-05-26T14:02:17.912Z,100279.84
2019-05-26T14:04:50.181Z,100314.00
2019-05-26T14:07:22.438Z,100335.48
2019-05-26T14:09:54.671Z,100318.91
2019-05-26T14:12:27.162Z,100310.09
2019-05-26T14:14:59.393Z,100321.91
2019-05-26T14:17:33.552Z,100313.49
2019-05-26T14:20:07.392Z,100315.15
2019-05-26T14:22:39.727Z,100316.52
2019-05-26T14:25:15.360Z,100311.47
2019-05-26T14:27:45.840Z,100307.51
2019-05-26T14:30:18.064Z,100311.41
2019-05-26T14:32:50.809Z,100319.54
2019-05-26T14:35:23.263Z,100330.73
2019-05-26T14:37:55.616Z,100336.95
2019-05-26T14:40:27.901Z,100333.06
2019-05-26T14:43:00.330Z,100338.42
2019-05-26T14:45:32.565Z,100338.56
2019-05-26T14:48:06.020Z,100337.67
2019-05-26T14:50:40.598Z,100340.41
2019-05-26T14:53:13.247Z,100348.00
2019-05-26T14:55:45.423Z,100342.77
2019-05-26T14:58:17.749Z,100339.36
2019-05-26T15:00:49.986Z,100337.59
2019-05-26T15:03:22.353Z,100344.58
2019-05-26T15:06:05.477Z,100351.16
2019-05-26T15:08:28.578Z,100353.23
2019-05-26T15:11:00.899Z,100347.73
2019-05-26T15:13:33.168Z,100336.60
2019-05-26T15:16:10.019Z,100337.45
2019-05-26T15:18:39.791Z,100338.94
2019-05-26T15:21:13.233Z,100344.26
2019-05-26T15:23:45.415Z,100348.72
2019-05-26T15:26:17.701Z,100344.75
2019-05-26T15:28:49.892Z,100354.42
2019-05-26T15:31:22.150Z,100360.64
2019-05-26T15:33:55.605Z,100352.57
2019-05-26T15:36:27.937Z,100349.86
2019-05-26T15:39:00.460Z,100352.20
2019-05-26T15:41:32.762Z,100362.81
2019-05-26T15:44:04.957Z,100370.92
2019-05-26T15:46:37.385Z,100373.44
2019-05-26T15:49:09.657Z,100379.48
2019-05-26T15:51:42.062Z,100390.10
2019-05-26T15:54:14.295Z,100397.84
2019-05-26T15:56:46.541Z,100397.19
2019-05-26T15:59:18.877Z,100401.84
2019-05-26T16:01:51.921Z,100391.76
2019-05-26T16:04:24.303Z,100383.83
2019-05-26T16:06:56.616Z,100393.91
2019-05-26T16:09:29.103Z,100399.47
2019-05-26T16:12:01.491Z,100397.41
2019-05-26T16:14:33.801Z,100400.41
2019-05-26T16:17:06.052Z,100408.68
2019-05-26T16:19:38.330Z,100417.55
2019-05-26T16:22:11.505Z,100425.12
2019-05-26T16:24:45.240Z,100426.30
2019-05-26T16:27:19.473Z,100434.31
2019-05-26T16:29:52.274Z,100437.15
2019-05-26T16:32:25.469Z,100431.70
2019-05-26T16:34:57.821Z,100439.91
2019-05-26T16:37:31.205Z,100434.69
2019-05-26T16:40:04.134Z,100436.83
2019-05-26T16:42:36.219Z,100442.00
2019-05-26T16:45:09.256Z,100439.31
2019-05-26T16:47:41.354Z,100440.78
2019-05-26T16:50:13.667Z,100442.98
2019-05-26T16:52:45.951Z,100437.59
2019-05-26T16:55:18.331Z,100435.50
2019-05-26T16:57:50.839Z,100436.84
2019-05-26T17:00:23.165Z,100437.52
2019-05-26T17:02:56.527Z,100436.17
2019-05-26T17:05:28.917Z,100436.68
2019-05-26T17:08:01.298Z,100436.51
2019-05-26T17:10:34.879Z,100436.17
2019-05-26T17:13:07.194Z,100439.70
2019-05-26T17:15:39.575Z,100439.20
2019-05-26T17:18:11.743Z,100450.58
2019-05-26T17:20:46.891Z,100444.91
2019-05-26T17:23:21.442Z,100452.30
2019-05-26T17:25:53.893Z,100463.39
2019-05-26T17:28:26.262Z,100464.39
2019-05-26T17:30:58.454Z,100469.39
2019-05-26T17:33:30.810Z,100466.70
2019-05-26T17:36:03.173Z,100473.38
2019-05-26T17:38:35.743Z,100472.16
2019-05-26T17:41:08.052Z,100479.08
2019-05-26T17:43:40.268Z,100486.30
2019-05-26T17:46:15.116Z,100486.26
2019-05-26T17:48:46.666Z,100489.16
2019-05-26T17:51:19.288Z,100493.81
2019-05-26T17:53:52.020Z,100491.80
2019-05-26T17:56:24.439Z,100500.81
2019-05-26T17:58:57.132Z,100505.19
2019-05-26T18:01:29.639Z,100507.69
2019-05-26T18:04:03.398Z,100506.35
2019-05-26T18:06:38.986Z,100509.15
2019-05-26T18:09:11.369Z,100510.48
2019-05-26T18:11:43.863Z,100515.14
2019-05-26T18:14:16.693Z,100514.80
2019-05-26T18:16:49.199Z,100518.64
2019-05-26T18:19:21.633Z,100525.14
2019-05-26T18:21:54.450Z,100529.17
2019-05-26T18:24:27.142Z,100528.55
2019-05-26T18:26:59.455Z,100528.66
2019-05-26T18:29:31.886Z,100529.44
2019-05-26T18:32:04.474Z,100530.95
2019-05-26T18:34:36.740Z,100538.61
2019-05-26T18:37:09.105Z,100537.13
2019-05-26T18:39:41.305Z,100534.80
2019-05-26T18:42:13.593Z,100541.79
2019-05-26T18:44:45.781Z,100542.85
2019-05-26T18:47:18.408Z,100545.20
2019-05-26T18:49:50.775Z,100551.06
2019-05-26T18:52:23.156Z,100548.72
2019-05-26T18:54:55.718Z,100550.19
2019-05-26T18:57:27.989Z,100548.38
2019-05-26T19:00:00.361Z,100543.80
2019-05-26T19:02:32.701Z,100546.98
2019-05-26T19:05:06.120Z,100549.16
2019-05-26T19:07:38.677Z,100552.17
2019-05-26T19:10:11.193Z,100551.91
2019-05-26T19:12:43.775Z,100560.09
2019-05-26T19:15:17.255Z,100553.54
2019-05-26T19:17:49.618Z,100557.38
2019-05-26T19:20:21.817Z,100560.99
2019-05-26T19:22:58.561Z,100561.09
2019-05-26T19:25:30.887Z,100563.44
2019-05-26T19:28:03.295Z,100568.63
2019-05-26T19:30:35.587Z,100568.91
2019-05-26T19:33:07.844Z,100573.66
2019-05-26T19:35:40.174Z,100575.63
2019-05-26T19:38:12.948Z,100575.47
2019-05-26T19:40:45.367Z,100578.65
2019-05-26T19:43:17.742Z,100577.53
2019-05-26T19:45:49.929Z,100581.71
2019-05-26T19:48:34.912Z,100576.28
2019-05-26T19:51:00.867Z,100585.68
2019-05-26T19:53:33.346Z,100584.18
2019-05-26T19:56:06.820Z,100594.42
2019-05-26T19:58:39.208Z,100595.48
2019-05-26T20:01:11.555Z,100599.30
2019-05-26T20:03:44.871Z,100595.42
2019-05-26T20:06:17.104Z,100597.11
2019-05-26T20:08:49.546Z,100602.88
2019-05-26T20:11:21.794Z,100607.81
2019-05-26T20:13:54.075Z,100612.97
2019-05-26T20:16:26.268Z,100615.12
2019-05-26T20:18:58.503Z,100618.91
2019-05-26T20:21:30.857Z,100621.25
2019-05-26T20:24:03.133Z,100628.24
2019-05-26T20:26:35.367Z,100633.58
2019-05-26T20:29:07.604Z,100637.23
2019-05-26T20:31:39.871Z,100642.83
2019-05-26T20:34:12.191Z,100641.39
2019-05-26T20:36:44.529Z,100648.73
2019-05-26T20:39:16.873Z,100648.19
2019-05-26T20:41:49.141Z,100638.14
2019-05-26T20:44:21.351Z,100644.70
2019-05-26T20:46:53.649Z,100646.51
2019-05-26T20:49:25.920Z,100645.91
2019-05-26T20:51:58.189Z,100643.87
2019-05-26T20:54:30.464Z,100649.59
2019-05-26T20:57:02.941Z,100651.56
2019-05-26T20:59:35.268Z,100652.97
2019-05-26T21:02:07.745Z,100653.56
2019-05-26T21:04:41.065Z,100647.27
2019-05-26T21:07:13.258Z,100647.61
2019-05-26T21:09:45.779Z,100650.53
2019-05-26T21:12:18.089Z,100654.27
2019-05-26T21:14:50.590Z,100657.89
2019-05-26T21:17:22.839Z,100659.64
2019-05-26T21:19:55.300Z,100659.73
2019-05-26T21:22:27.571Z,100658.81
2019-05-26T21:25:03.226Z,100664.14
2019-05-26T21:27:37.089Z,100662.23
2019-05-26T21:30:10.759Z,100662.66
2019-05-26T21:32:42.947Z,100659.13
2019-05-26T21:35:15.342Z,100662.55
2019-05-26T21:37:47.829Z,100663.89
2019-05-26T21:40:20.327Z,100667.15
2019-05-26T21:42:52.663Z,100670.83
2019-05-26T21:45:24.996Z,100665.95
2019-05-26T21:47:57.306Z,100677.95
2019-05-26T21:50:29.553Z,100674.85
2019-05-26T21:53:01.832Z,100679.52
2019-05-26T21:55:34.076Z,100682.21
2019-05-26T21:58:06.422Z,100682.91
2019-05-26T22:00:43.812Z,100676.99
2019-05-26T22:03:17.743Z,100679.10
2019-05-26T22:05:50.037Z,100695.55
2019-05-26T22:08:22.344Z,100694.13
2019-05-26T22:10:54.735Z,100689.95
2019-05-26T22:13:27.155Z,100690.95
2019-05-26T22:15:59.591Z,100702.98
2019-05-26T22:18:31.856Z,100707.92
2019-05-26T22:21:04.304Z,100698.34
2019-05-26T22:23:36.607Z,100714.55
2019-05-26T22:26:08.983Z,100707.23
2019-05-26T22:28:41.178Z,100707.92
2019-05-26T22:31:14.384Z,100712.52
2019-05-26T22:33:46.611Z,100710.97
2019-05-26T22:36:19.053Z,100709.98
2019-05-26T22:38:51.216Z,100713.16
2019-05-26T22:41:23.434Z,100709.75
2019-05-26T22:43:55.700Z,100711.59
2019-05-26T22:46:28.083Z,100709.70
2019-05-26T22:49:01.141Z,100710.61
2019-05-26T22:51:33.454Z,100713.59
2019-05-26T22:54:06.873Z,100709.83
2019-05-26T22:56:40.301Z,100713.45
2019-05-26T22:59:12.666Z,100712.46
2019-05-26T23:01:44.997Z,100718.44
2019-05-26T23:04:17.231Z,100716.05
2019-05-26T23:06:50.690Z,100722.61
2019-05-26T23:09:22.885Z,100722.64
2019-05-26T23:11:55.399Z,100723.92
2019-05-26T23:14:27.638Z,100724.42
2019-05-26T23:17:00.160Z,100722.84
2019-05-26T23:19:32.356Z,100711.69
2019-05-26T23:22:04.826Z,100715.85
2019-05-26T23:24:37.156Z,100718.47
2019-05-26T23:27:09.489Z,100717.25
2019-05-26T23:29:41.784Z,100719.58
2019-05-26T23:32:14.201Z,100718.73
2019-05-26T23:34:46.402Z,100714.86
2019-05-26T23:37:18.757Z,100718.79
2019-05-26T23:39:51.188Z,100721.55
2019-05-26T23:42:23.581Z,100718.98
2019-05-26T23:44:57.057Z,100725.19
2019-05-26T23:47:29.483Z,100729.25
2019-05-26T23:50:02.813Z,100736.69
2019-05-26T23:52:35.249Z,100741.45
2019-05-26T23:55:08.188Z,100736.84
2019-05-26T23:57:40.546Z,100737.63
